CYHK

Gjoa Haven Airport

Gjoa Haven, Canada
METAR CYHK 152000Z 31014KT 15SM SKC 15/07 A2996 RMK SLP149 DENSITY ALT 200FT
Observed Flight Rules
Jul-15 @ 20:00 UTC (an hour ago) Visual Flight Rules
Wind Visibility Clouds
310° at 14 knots 15 miles
  • Clear skies
Temperatures Readings
Current 15°C / 59°F
Dewpoint 7°C / 45°F
Humidity 59%
Altimeter 29.96" Hg
Pressure 1014.9 hPa
Elevation 46
METAR CYHK 152000Z 31014KT 15SM SKC 15/07 A2996 RMK SLP149 DENSITY ALT 200FT
Observed Flight Rules
Jul-15 @ 20:00 UTC
(an hour ago)
VFR
Wind Visibility
310° at 14 knots 15 miles
Clouds
  • Clear skies
Temperature Dewpoint
15°C / 59°F 7°C / 45°F
Humidity Altimeter Pressure
59% 29.96" Hg 1014.9 hPa